»·PEaware :: CREEP69 KGEG-KSEA

CREEP69 :: KGEG-KSEA

FLIGHT INFORMATION

Flight Status: Arrived
Operator: Unknown
More flights by this operator :: More flights under this callsign
Pilot: A. R. (21586)
Aircraft: BEECH AIRCRAFT T-6A TEXAN
(TEX2)
More flights by this aircraft type
Origin: KGEG Spokane Intl
United States
Destination: KSEA Seattle-Tacoma Intl
United States
More flights between these airports :: More routes between these airports
Route: +GEG6 EPH EPH8
File this flight plan on PilotEdge
Remarks: Request Spokane SIX departure to EPH
Altitude:
(Current/Filed)
16,000ft
Speed:
(Current/Filed)
254kts
Departed: 09-Nov-20 10:25 AM
Arrived: 09-Nov-20 11:22 AM
Distance/Time
Traveled:
194nm/0:56
Distance/Time
To Go:
Arrived

Flight Plot

Page will automatically refresh every two minutes.

Flight plan parsing failed; only flown route is shown


Map Options




Map Legend


Flown Route
Filed Route
Departure Airport
Arrival Airport
Navaid (VOR, NDB)
Fix

Horizontal Profiles

Position Reports

Time Latitude Longitude Heading Altitude Ground
Speed
09-Nov-20 10:08 47.620743 -117.526811 269 2358ft 0kts
09-Nov-20 10:09 47.620743 -117.526811 269 2358ft 0kts
09-Nov-20 10:10 47.620743 -117.526811 269 2358ft 0kts
09-Nov-20 10:11 47.620743 -117.526811 269 2358ft 0kts
09-Nov-20 10:12 47.620743 -117.526811 269 2358ft 0kts
09-Nov-20 10:13 47.620743 -117.526811 269 2358ft 0kts
09-Nov-20 10:14 47.620743 -117.526811 269 2358ft 0kts
09-Nov-20 10:15 47.620743 -117.526811 269 2358ft 0kts
09-Nov-20 10:16 47.620757 -117.527478 275 2358ft 7kts
09-Nov-20 10:17 47.621343 -117.529050 351 2357ft 4kts
09-Nov-20 10:18 47.623574 -117.526293 44 2353ft 13kts
09-Nov-20 10:19 47.626596 -117.521717 40 2344ft 15kts
09-Nov-20 10:20 47.629935 -117.516978 358 2325ft 16kts
09-Nov-20 10:21 47.630532 -117.517494 311 2323ft 0kts
09-Nov-20 10:22 47.630532 -117.517494 311 2323ft 0kts
09-Nov-20 10:23 47.630879 -117.518773 224 2325ft 7kts
09-Nov-20 10:24 47.607099 -117.552692 224 3691ft 180kts
09-Nov-20 10:25 47.567813 -117.609511 228 6214ft 214kts
09-Nov-20 10:26 47.524932 -117.678436 230 8874ft 233kts
09-Nov-20 10:27 47.486248 -117.751427 233 11895ft 235kts
09-Nov-20 10:28 47.443062 -117.839637 234 12322ft 277kts
09-Nov-20 10:29 47.450697 -117.927723 307 16013ft 236kts
09-Nov-20 10:30 47.501667 -118.010487 317 15777ft 303kts
09-Nov-20 10:31 47.551892 -118.099879 280 16009ft 312kts
09-Nov-20 10:32 47.539216 -118.220875 253 15946ft 288kts
09-Nov-20 10:33 47.519216 -118.331968 256 15812ft 274kts
09-Nov-20 10:34 47.501758 -118.441429 255 15868ft 272kts
09-Nov-20 10:35 47.483423 -118.549886 258 16007ft 271kts
09-Nov-20 10:36 47.468123 -118.659094 257 16031ft 274kts
09-Nov-20 10:37 47.452366 -118.769097 259 16019ft 275kts
09-Nov-20 10:38 47.437896 -118.879129 258 16100ft 272kts
09-Nov-20 10:39 47.420817 -118.988934 255 16025ft 275kts
09-Nov-20 10:40 47.400057 -119.096951 254 16027ft 271kts
09-Nov-20 10:41 47.378237 -119.203970 253 16184ft 268kts
09-Nov-20 10:42 47.359459 -119.312799 262 16057ft 274kts
09-Nov-20 10:43 47.352771 -119.424976 267 15944ft 275kts
09-Nov-20 10:44 47.370622 -119.530674 297 16036ft 273kts
09-Nov-20 10:45 47.404223 -119.630869 295 16169ft 269kts
09-Nov-20 10:47 47.431288 -119.735642 287 16060ft 273kts
09-Nov-20 10:48 47.453581 -119.843016 287 16071ft 273kts
09-Nov-20 10:49 47.477288 -119.949571 284 16084ft 274kts
09-Nov-20 10:50 47.499586 -120.057379 289 16038ft 274kts
09-Nov-20 10:51 47.521943 -120.165474 286 16048ft 271kts
09-Nov-20 10:52 47.544229 -120.273743 287 15884ft 276kts
09-Nov-20 10:53 47.567633 -120.379434 289 16003ft 276kts
09-Nov-20 10:54 47.592179 -120.486693 287 16040ft 273kts
09-Nov-20 10:55 47.613071 -120.595290 286 16082ft 272kts
09-Nov-20 10:56 47.633174 -120.704335 283 16051ft 274kts
09-Nov-20 10:57 47.648959 -120.815747 281 15876ft 279kts
09-Nov-20 10:58 47.666459 -120.924776 285 15902ft 268kts
09-Nov-20 10:59 47.688162 -121.029571 287 16081ft 263kts
09-Nov-20 11:00 47.709970 -121.134735 287 16014ft 266kts
09-Nov-20 11:01 47.731593 -121.239962 288 15996ft 267kts
09-Nov-20 11:02 47.753671 -121.345350 287 15874ft 273kts
09-Nov-20 11:03 47.771167 -121.453311 282 15932ft 268kts
09-Nov-20 11:04 47.785131 -121.562787 283 15199ft 279kts
09-Nov-20 11:04 47.802750 -121.653404 291 13215ft 272kts
09-Nov-20 11:06 47.836961 -121.770695 295 10433ft 259kts
09-Nov-20 11:06 47.849835 -121.853015 266 8097ft 266kts
09-Nov-20 11:08 47.842539 -121.970144 267 5365ft 229kts
09-Nov-20 11:08 47.841756 -122.040438 269 4959ft 187kts
09-Nov-20 11:09 47.837852 -122.119152 267 3559ft 190kts
09-Nov-20 11:10 47.837258 -122.200044 269 2997ft 203kts
09-Nov-20 11:11 47.825300 -122.275305 206 3072ft 206kts
09-Nov-20 11:12 47.773596 -122.302238 184 2885ft 172kts
09-Nov-20 11:13 47.727245 -122.302615 184 3096ft 166kts
09-Nov-20 11:14 47.679396 -122.303642 184 3053ft 177kts
09-Nov-20 11:15 47.629897 -122.305445 187 3047ft 178kts
09-Nov-20 11:16 47.591245 -122.303988 182 2999ft 115kts
09-Nov-20 11:17 47.559417 -122.304405 186 2238ft 113kts
09-Nov-20 11:18 47.528901 -122.305534 183 1640ft 101kts
09-Nov-20 11:19 47.499601 -122.306785 182 1210ft 102kts
09-Nov-20 11:20 47.470932 -122.307675 180 607ft 104kts
09-Nov-20 11:21 47.453763 -122.307907 177 421ft 25kts

Navigation Log

Ident Type
Flight plan parsing failed, navigation log unavailable